createdAt,value
2022-10-08T00:04:01.707Z,11
2022-10-08T00:14:08.000Z,12
2022-10-08T00:24:14.626Z,10
2022-10-08T00:34:19.179Z,12
2022-10-08T00:44:25.218Z,10
2022-10-08T00:54:31.144Z,10
2022-10-08T01:04:37.896Z,12
2022-10-08T01:14:45.104Z,10
2022-10-08T01:24:49.823Z,14
2022-10-08T01:34:54.123Z,13
2022-10-08T01:44:59.405Z,12
2022-10-08T01:55:06.913Z,11
2022-10-08T02:05:12.264Z,9
2022-10-08T02:15:19.384Z,13
2022-10-08T02:25:24.505Z,11
2022-10-08T02:35:32.003Z,11
2022-10-08T02:45:38.970Z,10
2022-10-08T02:55:43.597Z,17
2022-10-08T03:05:49.860Z,18
2022-10-08T03:15:56.356Z,19
2022-10-08T03:26:02.059Z,21
2022-10-08T03:36:08.238Z,14
2022-10-08T03:46:15.467Z,10
2022-10-08T03:56:20.485Z,15
2022-10-08T04:06:26.362Z,12
2022-10-08T04:16:30.990Z,11
2022-10-08T04:26:35.002Z,11
2022-10-08T04:36:47.239Z,11
2022-10-08T04:46:49.615Z,13
2022-10-08T04:56:54.332Z,10
2022-10-08T05:07:00.289Z,10
2022-10-08T05:17:07.903Z,10
2022-10-08T05:27:41.062Z,8
2022-10-08T05:37:34.622Z,8
2022-10-08T05:47:41.760Z,11
2022-10-08T05:57:48.129Z,9
2022-10-08T06:07:54.099Z,10
2022-10-08T06:18:00.374Z,9
2022-10-08T06:28:05.748Z,10
2022-10-08T06:38:11.785Z,8
2022-10-08T06:48:17.684Z,10
2022-10-08T06:58:23.320Z,10
2022-10-08T07:08:28.902Z,9
2022-10-08T07:18:36.209Z,8
2022-10-08T07:28:42.081Z,9
2022-10-08T07:38:47.362Z,9
2022-10-08T07:48:53.790Z,9
2022-10-08T07:58:58.832Z,9
2022-10-08T08:09:04.849Z,10
2022-10-08T08:19:09.808Z,11
2022-10-08T08:29:16.656Z,10
2022-10-08T08:39:22.715Z,7
2022-10-08T08:49:30.270Z,8
2022-10-08T08:59:35.411Z,8
2022-10-08T09:09:42.039Z,8
2022-10-08T09:19:49.223Z,9
2022-10-08T09:29:55.231Z,9
2022-10-08T09:39:59.551Z,12
2022-10-08T09:50:07.138Z,8
2022-10-08T10:00:14.136Z,10
2022-10-08T10:10:19.469Z,10
2022-10-08T10:30:32.232Z,9
2022-10-08T10:40:39.351Z,12
2022-10-08T10:50:45.160Z,10
2022-10-08T11:00:51.445Z,11
2022-10-08T11:10:58.317Z,8
2022-10-08T11:21:04.210Z,9
2022-10-08T11:31:10.310Z,11
2022-10-08T11:51:22.771Z,14
2022-10-08T12:11:34.719Z,18
2022-10-08T12:21:41.613Z,15
2022-10-08T12:31:50.245Z,15
2022-10-08T12:41:52.021Z,17
2022-10-08T13:12:08.009Z,15
2022-10-08T13:32:18.727Z,13
2022-10-08T13:42:28.379Z,13
2022-10-08T13:52:30.855Z,12
2022-10-08T14:02:38.453Z,12
2022-10-08T14:22:51.998Z,14
2022-10-08T14:32:57.471Z,15
2022-10-08T14:43:03.173Z,19
2022-10-08T14:53:14.916Z,19
2022-10-08T15:03:16.033Z,18
2022-10-08T15:13:22.356Z,20
2022-10-08T15:23:27.880Z,19
2022-10-08T15:33:32.720Z,24
2022-10-08T15:43:38.040Z,14
2022-10-08T15:53:44.815Z,16
2022-10-08T16:03:49.562Z,17
2022-10-08T16:13:56.588Z,18
2022-10-08T16:24:04.117Z,19
2022-10-08T16:34:08.981Z,16
2022-10-08T16:44:15.860Z,19
2022-10-08T16:54:21.225Z,19
2022-10-08T17:04:27.560Z,15
2022-10-08T17:14:35.202Z,15
2022-10-08T17:24:42.941Z,21
2022-10-08T17:34:45.828Z,17
2022-10-08T17:44:51.627Z,19
2022-10-08T17:54:58.074Z,19
2022-10-08T18:05:05.288Z,17
2022-10-08T18:15:11.412Z,16
2022-10-08T18:25:17.066Z,22
2022-10-08T18:35:22.979Z,22
2022-10-08T18:45:31.428Z,20
2022-10-08T18:55:37.420Z,19
2022-10-08T19:05:42.582Z,21
2022-10-08T19:15:47.704Z,24
2022-10-08T19:25:52.543Z,23
2022-10-08T19:35:59.028Z,21
2022-10-08T19:46:05.037Z,21
2022-10-08T19:56:10.963Z,23
2022-10-08T20:06:25.086Z,24
2022-10-08T20:16:27.788Z,19
2022-10-08T20:26:31.717Z,17
2022-10-08T20:36:38.648Z,14
2022-10-08T20:46:46.656Z,15
2022-10-08T20:56:52.580Z,16
2022-10-08T21:06:59.364Z,15
2022-10-08T21:17:06.183Z,17
2022-10-08T21:27:12.702Z,18
2022-10-08T21:37:19.830Z,16
2022-10-08T21:47:26.043Z,16
2022-10-08T21:57:32.101Z,14
2022-10-08T22:07:38.620Z,18
2022-10-08T22:17:43.981Z,14
2022-10-08T22:27:50.535Z,15
2022-10-08T22:37:56.642Z,15
2022-10-08T22:48:02.253Z,13
2022-10-08T22:58:08.533Z,13
2022-10-08T23:08:12.561Z,14
2022-10-08T23:18:19.394Z,12
2022-10-08T23:28:24.256Z,14
2022-10-08T23:38:30.402Z,13
2022-10-08T23:48:37.654Z,10
2022-10-08T23:58:42.994Z,9
